createdAt,value
2023-03-22T00:00:14.334Z,34.40
2023-03-22T00:03:01.446Z,32.13
2023-03-22T00:05:30.516Z,33.92
2023-03-22T00:08:00.567Z,31.83
2023-03-22T00:10:31.273Z,34.45
2023-03-22T00:12:59.256Z,33.28
2023-03-22T00:15:29.506Z,32.38
2023-03-22T00:17:59.009Z,31.33
2023-03-22T00:20:30.637Z,31.10
2023-03-22T00:22:58.288Z,30.15
2023-03-22T00:25:26.345Z,31.60
2023-03-22T00:27:53.882Z,32.38
2023-03-22T00:30:21.188Z,32.80
2023-03-22T00:32:49.401Z,33.72
2023-03-22T00:35:16.454Z,32.17
2023-03-22T00:37:43.632Z,32.22
2023-03-22T00:40:14.691Z,30.52
2023-03-22T00:42:43.411Z,31.30
2023-03-22T00:45:11.945Z,29.70
2023-03-22T00:47:39.449Z,28.08
2023-03-22T00:50:07.522Z,27.50
2023-03-22T00:52:35.097Z,31.25
2023-03-22T00:55:02.330Z,29.83
2023-03-22T00:57:29.676Z,31.15
2023-03-22T00:59:58.550Z,29.15
2023-03-22T01:02:29.729Z,30.40
2023-03-22T01:04:57.364Z,30.30
2023-03-22T01:07:24.909Z,30.10
2023-03-22T01:09:52.419Z,30.48
2023-03-22T01:12:20.381Z,32.17
2023-03-22T01:14:47.754Z,33.22
2023-03-22T01:17:16.015Z,34.15
2023-03-22T01:19:43.225Z,31.38
2023-03-22T01:22:10.829Z,32.28
2023-03-22T01:24:37.887Z,34.05
2023-03-22T01:27:05.906Z,34.30
2023-03-22T01:29:33.122Z,36.15
2023-03-22T01:32:00.372Z,32.15
2023-03-22T01:34:27.708Z,34.75
2023-03-22T01:36:55.559Z,35.13
2023-03-22T01:39:22.991Z,32.65
2023-03-22T01:41:55.910Z,35.50
2023-03-22T01:44:24.040Z,33.08
2023-03-22T01:46:54.081Z,34.28
2023-03-22T01:49:28.654Z,35.15
2023-03-22T01:51:58.843Z,33.53
2023-03-22T01:54:54.117Z,32.85
2023-03-22T01:57:47.629Z,33.30
2023-03-22T02:00:21.156Z,33.17
2023-03-22T02:03:11.936Z,32.67
2023-03-22T02:05:44.658Z,34.55
2023-03-22T02:08:15.061Z,33.60
2023-03-22T02:11:05.846Z,33.10
2023-03-22T02:13:53.803Z,32.28
2023-03-22T02:16:40.703Z,34.92
2023-03-22T02:19:45.786Z,33.88
2023-03-22T02:23:02.049Z,33.72
2023-03-22T02:25:41.279Z,31.83
2023-03-22T02:28:29.748Z,32.42
2023-03-22T02:31:09.363Z,35.25
2023-03-22T02:33:54.582Z,34.85
2023-03-22T02:36:46.623Z,34.17
2023-03-22T02:42:12.216Z,33.17
2023-03-22T02:44:50.014Z,34.05
2023-03-22T02:47:34.332Z,35.72
2023-03-22T02:50:10.473Z,35.70
2023-03-22T02:52:40.649Z,35.78
2023-03-22T02:55:32.498Z,37.60
2023-03-22T02:58:21.695Z,36.03
2023-03-22T03:00:54.838Z,36.67
2023-03-22T03:03:25.749Z,38.92
2023-03-22T03:06:00.871Z,35.72
2023-03-22T03:08:30.718Z,39.03
2023-03-22T03:13:26.972Z,34.75
2023-03-22T03:16:00.164Z,36.90
2023-03-22T03:18:47.190Z,37.13
2023-03-22T03:21:34.821Z,39.85
2023-03-22T03:24:23.298Z,38.35
2023-03-22T03:27:31.560Z,38.25
2023-03-22T03:30:02.597Z,38.85
2023-03-22T03:32:38.537Z,40.13
2023-03-22T03:35:41.016Z,37.47
2023-03-22T03:38:18.745Z,38.58
2023-03-22T03:40:51.927Z,37.17
2023-03-22T03:43:22.300Z,37.33
2023-03-22T03:45:51.981Z,37.03
2023-03-22T03:48:22.404Z,36.88
2023-03-22T03:50:52.704Z,35.75
2023-03-22T03:53:20.023Z,33.17
2023-03-22T03:55:47.578Z,34.58
2023-03-22T03:58:16.768Z,32.50
2023-03-22T04:00:46.595Z,32.63
2023-03-22T04:03:46.647Z,32.38
2023-03-22T04:06:34.680Z,30.23
2023-03-22T04:09:08.456Z,31.30
2023-03-22T04:11:40.423Z,30.88
2023-03-22T04:14:07.464Z,31.73
2023-03-22T04:16:34.714Z,31.95
2023-03-22T04:19:02.547Z,32.40
2023-03-22T04:21:29.854Z,32.38
2023-03-22T04:23:58.502Z,31.98
2023-03-22T04:26:27.813Z,31.08
2023-03-22T04:29:16.727Z,29.35
2023-03-22T04:31:48.914Z,31.30
2023-03-22T04:34:21.571Z,30.15
2023-03-22T04:37:02.712Z,30.50
2023-03-22T04:39:59.602Z,30.83
2023-03-22T04:42:37.243Z,32.55
2023-03-22T04:45:13.790Z,30.60
2023-03-22T04:47:44.208Z,32.33
2023-03-22T04:50:11.979Z,31.15
2023-03-22T04:52:50.049Z,29.48
2023-03-22T04:55:17.481Z,30.63
2023-03-22T04:57:45.914Z,32.53
2023-03-22T05:00:13.369Z,30.63
2023-03-22T05:02:41.818Z,30.95
2023-03-22T05:05:17.042Z,30.73
2023-03-22T05:07:45.824Z,30.83
2023-03-22T05:10:12.748Z,29.63
2023-03-22T05:12:41.208Z,29.38
2023-03-22T05:15:16.828Z,29.10
2023-03-22T05:17:44.850Z,28.55
2023-03-22T05:20:11.982Z,31.15
2023-03-22T05:22:41.454Z,28.90
2023-03-22T05:25:10.993Z,29.50
2023-03-22T05:27:40.784Z,29.58
2023-03-22T05:30:34.029Z,28.48
2023-03-22T05:33:09.514Z,26.00
2023-03-22T05:35:42.295Z,28.35
2023-03-22T05:38:10.711Z,28.60
2023-03-22T05:40:42.086Z,27.42
2023-03-22T05:43:09.852Z,27.50
2023-03-22T05:45:41.639Z,27.65
2023-03-22T05:48:22.012Z,27.02
2023-03-22T05:50:49.541Z,27.17
2023-03-22T05:53:17.704Z,28.17
2023-03-22T05:56:01.950Z,28.33
2023-03-22T05:58:32.635Z,26.80
2023-03-22T06:01:06.134Z,29.65
2023-03-22T06:03:59.481Z,28.38
2023-03-22T06:06:34.581Z,26.42
2023-03-22T06:09:16.743Z,27.73
2023-03-22T06:11:46.838Z,26.50
2023-03-22T06:14:15.975Z,27.63
2023-03-22T06:17:03.387Z,24.77
2023-03-22T06:19:31.375Z,25.00
2023-03-22T06:22:02.035Z,24.70
2023-03-22T06:24:29.388Z,25.92
2023-03-22T06:26:56.379Z,27.05
2023-03-22T06:29:23.881Z,24.55
2023-03-22T06:31:54.613Z,23.88
2023-03-22T06:34:25.380Z,24.88
2023-03-22T06:39:37.101Z,22.90
2023-03-22T06:42:04.071Z,23.67
2023-03-22T06:44:31.917Z,24.65
2023-03-22T06:47:13.105Z,20.67
2023-03-22T06:49:47.701Z,21.80
2023-03-22T06:52:19.724Z,22.02
2023-03-22T06:54:47.465Z,21.52
2023-03-22T06:57:14.715Z,20.10
2023-03-22T06:59:42.732Z,21.13
2023-03-22T07:02:12.325Z,19.88
2023-03-22T07:04:42.600Z,16.88
2023-03-22T07:07:09.618Z,16.23
2023-03-22T07:09:36.897Z,14.57
2023-03-22T07:12:05.058Z,13.82
2023-03-22T07:14:33.056Z,14.88
2023-03-22T07:17:19.031Z,14.68
2023-03-22T07:19:46.371Z,15.88
2023-03-22T07:22:14.240Z,13.07
2023-03-22T07:24:55.721Z,12.95
2023-03-22T07:27:24.807Z,12.57
2023-03-22T07:29:52.622Z,12.50
2023-03-22T07:32:19.973Z,12.40
2023-03-22T07:35:01.656Z,12.13
2023-03-22T07:37:29.220Z,11.23
2023-03-22T07:39:56.438Z,11.98
2023-03-22T07:42:26.360Z,11.85
2023-03-22T07:45:12.164Z,11.00
2023-03-22T07:47:43.029Z,12.10
2023-03-22T07:50:33.549Z,12.48
2023-03-22T07:55:32.483Z,12.45
2023-03-22T07:57:59.750Z,11.80
2023-03-22T08:00:27.137Z,11.70
2023-03-22T08:03:14.146Z,11.93
2023-03-22T08:06:08.184Z,12.75
2023-03-22T08:08:37.390Z,14.15
2023-03-22T08:11:07.048Z,12.63
2023-03-22T08:13:34.400Z,13.02
2023-03-22T08:16:01.856Z,12.45
2023-03-22T08:18:31.158Z,12.43
2023-03-22T08:21:00.214Z,13.68
2023-03-22T08:23:40.952Z,12.57
2023-03-22T08:26:12.294Z,13.27
2023-03-22T08:28:39.461Z,12.68
2023-03-22T08:31:15.486Z,13.85
2023-03-22T08:33:44.723Z,12.35
2023-03-22T08:36:16.498Z,13.20
2023-03-22T08:38:53.264Z,14.90
2023-03-22T08:41:26.873Z,13.95
2023-03-22T08:43:53.976Z,12.85
2023-03-22T08:46:21.208Z,13.35
2023-03-22T08:48:51.668Z,12.77
2023-03-22T08:51:25.659Z,13.00
2023-03-22T08:54:09.822Z,14.02
2023-03-22T08:56:55.741Z,11.77
2023-03-22T08:59:45.637Z,13.98
2023-03-22T09:02:33.384Z,13.82
2023-03-22T09:05:01.641Z,12.32
2023-03-22T09:07:29.139Z,12.43
2023-03-22T09:10:13.219Z,12.82
2023-03-22T09:12:44.231Z,12.68
2023-03-22T09:15:11.392Z,13.10
2023-03-22T09:17:41.614Z,13.18
2023-03-22T09:20:12.814Z,12.52
2023-03-22T09:22:42.722Z,13.38
2023-03-22T09:25:12.995Z,12.60
2023-03-22T09:30:11.295Z,11.70
2023-03-22T09:32:40.602Z,12.10
2023-03-22T09:35:08.916Z,12.10
2023-03-22T09:37:45.636Z,12.63
2023-03-22T09:40:13.731Z,12.18
2023-03-22T09:42:46.386Z,10.55
2023-03-22T09:45:41.143Z,11.85
2023-03-22T09:48:18.531Z,11.30
2023-03-22T09:50:49.486Z,10.93
2023-03-22T09:53:17.868Z,11.52
2023-03-22T09:55:55.376Z,11.75
2023-03-22T09:58:31.051Z,11.80
2023-03-22T10:01:02.730Z,11.68
2023-03-22T10:03:32.950Z,10.43
2023-03-22T10:06:12.368Z,11.27
2023-03-22T10:09:14.048Z,10.88
2023-03-22T10:11:49.653Z,11.43
2023-03-22T10:14:39.398Z,11.32
2023-03-22T10:17:12.131Z,11.02
2023-03-22T10:19:55.358Z,11.25
2023-03-22T10:22:30.150Z,10.75
2023-03-22T10:25:00.348Z,11.52
2023-03-22T10:27:29.765Z,11.63
2023-03-22T10:30:23.200Z,10.63
2023-03-22T10:33:01.726Z,10.90
2023-03-22T10:35:30.779Z,11.40
2023-03-22T10:38:01.720Z,11.13
2023-03-22T10:40:32.956Z,11.52
2023-03-22T10:43:11.745Z,11.18
2023-03-22T10:45:40.388Z,10.80
2023-03-22T10:48:16.713Z,10.48
2023-03-22T10:50:45.930Z,11.35
2023-03-22T10:53:31.633Z,10.40
2023-03-22T10:55:59.216Z,10.25
2023-03-22T10:58:31.656Z,10.95
2023-03-22T11:01:25.496Z,10.75
2023-03-22T11:03:57.658Z,10.88
2023-03-22T11:06:29.962Z,10.50
2023-03-22T11:09:11.632Z,11.38
2023-03-22T11:11:48.367Z,9.93
2023-03-22T11:14:21.668Z,10.35
2023-03-22T11:16:53.858Z,10.15
2023-03-22T11:19:32.231Z,10.65
2023-03-22T11:22:00.977Z,9.90
2023-03-22T11:24:31.117Z,10.32
2023-03-22T11:27:19.364Z,10.07
2023-03-22T11:29:49.739Z,10.15
2023-03-22T11:33:11.316Z,10.50
2023-03-22T11:35:39.421Z,9.43
2023-03-22T11:38:07.682Z,10.10
2023-03-22T11:40:36.958Z,9.68
2023-03-22T11:43:10.326Z,10.05
2023-03-22T11:45:41.804Z,10.10
2023-03-22T11:48:15.771Z,9.65
2023-03-22T11:50:44.629Z,9.75
2023-03-22T11:53:17.010Z,9.48
2023-03-22T11:55:45.312Z,10.32
2023-03-22T11:58:28.332Z,9.90
2023-03-22T12:01:01.006Z,10.32
2023-03-22T12:03:36.731Z,9.68
2023-03-22T12:06:18.939Z,9.40
2023-03-22T12:08:54.674Z,9.55
2023-03-22T12:11:29.512Z,9.50
2023-03-22T12:14:09.584Z,9.88
2023-03-22T12:16:47.777Z,9.63
2023-03-22T12:19:17.953Z,10.35
2023-03-22T12:21:46.399Z,9.70
2023-03-22T12:24:30.838Z,9.32
2023-03-22T12:27:04.469Z,9.63
2023-03-22T12:29:32.269Z,9.00
2023-03-22T12:32:07.167Z,8.55
2023-03-22T12:34:43.676Z,9.43
2023-03-22T12:37:19.445Z,9.20
2023-03-22T12:39:53.914Z,9.02
2023-03-22T12:42:50.351Z,8.65
2023-03-22T12:45:31.381Z,8.70
2023-03-22T12:48:10.511Z,8.40
2023-03-22T12:51:05.880Z,7.38
2023-03-22T12:53:42.654Z,7.68
2023-03-22T12:56:17.716Z,8.25
2023-03-22T12:58:51.959Z,7.43
2023-03-22T13:01:28.724Z,7.70
2023-03-22T13:03:57.788Z,8.13
2023-03-22T13:06:55.559Z,8.27
2023-03-22T13:09:45.798Z,7.72
2023-03-22T13:12:19.184Z,8.02
2023-03-22T13:14:52.131Z,8.18
2023-03-22T13:17:22.483Z,8.40
2023-03-22T13:20:00.184Z,8.32
2023-03-22T13:22:36.615Z,9.45
2023-03-22T13:25:13.469Z,8.90
2023-03-22T13:28:26.554Z,8.50
2023-03-22T13:30:58.902Z,8.45
2023-03-22T13:33:33.027Z,8.70
2023-03-22T13:36:07.353Z,8.50
2023-03-22T13:38:37.358Z,8.30
2023-03-22T13:41:17.232Z,8.65
2023-03-22T13:44:26.110Z,8.13
2023-03-22T13:46:57.267Z,8.73
2023-03-22T13:49:38.994Z,8.90
2023-03-22T13:52:09.215Z,8.40
2023-03-22T13:54:42.539Z,7.85
2023-03-22T13:57:37.729Z,8.45
2023-03-22T14:00:20.708Z,9.30
2023-03-22T14:02:50.106Z,9.45
2023-03-22T14:05:23.577Z,8.90
2023-03-22T14:07:53.872Z,8.55
2023-03-22T14:10:22.919Z,8.10
2023-03-22T14:12:59.452Z,8.88
2023-03-22T14:15:32.366Z,8.05
2023-03-22T14:18:08.348Z,8.52
2023-03-22T14:20:37.926Z,8.18
